Worland Municipal Airport
KWRL : now visible

Airfield :











YOU CAN JOIN US ON...

 
LOGIN :

Register | Disclaimer

   EN    FR    IT 

 









Legend :    VFR   Marginal VFR   IFR   Intensive IFR   Very Intensive IFR
Visi :
Ceiling :
>= 8 km
>= 3000ft
5 to 8 km
1000 to 3000 ft
1500m to 5 km
500 to 1000 ft
800 to 1500m
200 to 500 ft
< 800m
< 200 ft
Symbols :   Thunderstorms  Fog  Heavy snow  Heavy precipitations  Wind > 20 kt






- Airport Elevation : 4227 ft
- IATA code : WRL


KWRL - Worland Municipal

CURRENT METAR :
  • 141053Z AUTO 31007KT 10SM CLR 12/08 A2998 RMK AO2 SLP111 T01220078

EXPIRED METARs :
  • 140953Z AUTO 00000KT 10SM CLR 11/07 A2996 RMK AO2 SLP107 T01110067
  • 140853Z AUTO 08006KT 10SM CLR 13/06 A2997 RMK AO2 SLP109 T01330056 58005
  • 140753Z AUTO 17005KT 10SM CLR 14/06 A2999 RMK AO2 SLP116 T01440061
  • 140653Z AUTO 00000KT 10SM CLR 16/06 A2999 RMK AO2 SLP116 T01560061 403110100

TAF KWRL
Valid from the 14 at 06:00 until the 15 at 06:00 UTC


140521Z 1406/1506 VRB05KT P6SM SCT150
FM141900 17010KT P6SM SCT150
FM142200 20010G18KT P6SM SCT150
PROB30 1422/1502 VRB25G35KT -TSRA BKN100CB
FM150300 VRB05KT P6SM FEW150
KZLC FIR / North America



MET'MAP, your aeronautical weather chart ! - Copyright ORBIFLY December 2007 - Disclaimer

ORBIFLY MET'MAP TEAM :

Programming & Development : Alexandra Zaïnal
Original concept : Baudouin d'Aumeries
Technical & hardware support : Manuel Goepfert
Assistance : Marc-Olivier Méhu




SOURCES & CREDITS :

   NOAA       Earth
Advisory